sensor_id;sensor_type;location;lat;lon;timestamp;P1;durP1;ratioP1;P2;durP2;ratioP2
71753;SDS011;59593;51.716;7.016;2022-08-19T00:01:09;6.18;;;5.57;;
71753;SDS011;59593;51.716;7.016;2022-08-19T00:03:35;8.18;;;6.28;;
71753;SDS011;59593;51.716;7.016;2022-08-19T00:06:04;8.02;;;6.18;;
71753;SDS011;59593;51.716;7.016;2022-08-19T00:08:30;7.88;;;6.38;;
71753;SDS011;59593;51.716;7.016;2022-08-19T00:10:56;5.82;;;5.32;;
71753;SDS011;59593;51.716;7.016;2022-08-19T00:13:22;6.50;;;5.90;;
71753;SDS011;59593;51.716;7.016;2022-08-19T00:15:47;6.97;;;5.97;;
71753;SDS011;59593;51.716;7.016;2022-08-19T00:18:13;6.60;;;6.00;;
71753;SDS011;59593;51.716;7.016;2022-08-19T00:20:38;6.28;;;5.38;;
71753;SDS011;59593;51.716;7.016;2022-08-19T00:23:05;6.15;;;5.55;;
71753;SDS011;59593;51.716;7.016;2022-08-19T00:25:31;6.07;;;5.55;;
71753;SDS011;59593;51.716;7.016;2022-08-19T00:27:57;7.63;;;5.70;;
71753;SDS011;59593;51.716;7.016;2022-08-19T00:30:24;7.15;;;5.60;;
71753;SDS011;59593;51.716;7.016;2022-08-19T00:32:50;6.80;;;5.75;;
71753;SDS011;59593;51.716;7.016;2022-08-19T00:35:16;5.95;;;5.45;;
71753;SDS011;59593;51.716;7.016;2022-08-19T00:37:42;6.00;;;5.50;;
71753;SDS011;59593;51.716;7.016;2022-08-19T00:40:09;6.80;;;6.05;;
71753;SDS011;59593;51.716;7.016;2022-08-19T00:42:36;8.25;;;6.40;;
71753;SDS011;59593;51.716;7.016;2022-08-19T00:45:02;8.15;;;6.03;;
71753;SDS011;59593;51.716;7.016;2022-08-19T00:47:36;7.72;;;6.20;;
71753;SDS011;59593;51.716;7.016;2022-08-19T00:50:02;6.82;;;5.60;;
71753;SDS011;59593;51.716;7.016;2022-08-19T00:52:32;7.72;;;5.90;;
71753;SDS011;59593;51.716;7.016;2022-08-19T00:55:02;5.75;;;5.10;;
71753;SDS011;59593;51.716;7.016;2022-08-19T00:57:32;6.00;;;5.50;;
71753;SDS011;59593;51.716;7.016;2022-08-19T01:00:05;6.82;;;5.50;;
71753;SDS011;59593;51.716;7.016;2022-08-19T01:02:35;6.15;;;5.55;;
71753;SDS011;59593;51.716;7.016;2022-08-19T01:05:02;6.07;;;5.47;;
71753;SDS011;59593;51.716;7.016;2022-08-19T01:07:31;6.15;;;5.55;;
71753;SDS011;59593;51.716;7.016;2022-08-19T01:09:58;6.03;;;5.43;;
71753;SDS011;59593;51.716;7.016;2022-08-19T01:12:24;5.85;;;5.35;;
71753;SDS011;59593;51.716;7.016;2022-08-19T01:14:50;6.28;;;5.68;;
71753;SDS011;59593;51.716;7.016;2022-08-19T01:17:17;7.90;;;6.40;;
71753;SDS011;59593;51.716;7.016;2022-08-19T01:19:44;7.10;;;5.80;;
71753;SDS011;59593;51.716;7.016;2022-08-19T01:22:14;6.05;;;5.53;;
71753;SDS011;59593;51.716;7.016;2022-08-19T01:25:01;8.48;;;6.55;;
71753;SDS011;59593;51.716;7.016;2022-08-19T01:27:36;7.03;;;6.32;;
71753;SDS011;59593;51.716;7.016;2022-08-19T01:30:04;11.75;;;6.93;;
71753;SDS011;59593;51.716;7.016;2022-08-19T01:32:31;7.75;;;6.80;;
71753;SDS011;59593;51.716;7.016;2022-08-19T01:34:56;8.70;;;6.50;;
71753;SDS011;59593;51.716;7.016;2022-08-19T01:37:22;9.70;;;6.32;;
71753;SDS011;59593;51.716;7.016;2022-08-19T01:39:48;8.80;;;6.32;;
71753;SDS011;59593;51.716;7.016;2022-08-19T01:42:15;8.73;;;6.70;;
71753;SDS011;59593;51.716;7.016;2022-08-19T01:44:40;6.45;;;5.85;;
71753;SDS011;59593;51.716;7.016;2022-08-19T01:47:07;7.80;;;6.63;;
71753;SDS011;59593;51.716;7.016;2022-08-19T01:49:34;6.80;;;6.18;;
71753;SDS011;59593;51.716;7.016;2022-08-19T01:52:01;8.13;;;6.40;;
71753;SDS011;59593;51.716;7.016;2022-08-19T01:54:27;7.53;;;6.60;;
71753;SDS011;59593;51.716;7.016;2022-08-19T01:56:55;9.13;;;5.80;;
71753;SDS011;59593;51.716;7.016;2022-08-19T01:59:26;7.32;;;6.53;;
71753;SDS011;59593;51.716;7.016;2022-08-19T02:01:52;7.28;;;6.50;;
71753;SDS011;59593;51.716;7.016;2022-08-19T02:04:18;7.05;;;6.25;;
71753;SDS011;59593;51.716;7.016;2022-08-19T02:06:43;6.30;;;5.80;;
71753;SDS011;59593;51.716;7.016;2022-08-19T02:09:09;7.07;;;6.10;;
71753;SDS011;59593;51.716;7.016;2022-08-19T02:11:35;6.82;;;6.13;;
71753;SDS011;59593;51.716;7.016;2022-08-19T02:14:04;7.03;;;6.32;;
71753;SDS011;59593;51.716;7.016;2022-08-19T02:16:31;6.15;;;5.45;;
71753;SDS011;59593;51.716;7.016;2022-08-19T02:18:57;8.85;;;6.25;;
71753;SDS011;59593;51.716;7.016;2022-08-19T02:21:25;8.32;;;6.38;;
71753;SDS011;59593;51.716;7.016;2022-08-19T02:23:51;6.85;;;6.18;;
71753;SDS011;59593;51.716;7.016;2022-08-19T02:26:17;7.22;;;6.30;;
71753;SDS011;59593;51.716;7.016;2022-08-19T02:28:43;6.78;;;6.07;;
71753;SDS011;59593;51.716;7.016;2022-08-19T02:31:10;7.85;;;6.18;;
71753;SDS011;59593;51.716;7.016;2022-08-19T02:33:37;7.22;;;6.10;;
71753;SDS011;59593;51.716;7.016;2022-08-19T02:36:03;6.70;;;6.10;;
71753;SDS011;59593;51.716;7.016;2022-08-19T02:38:30;7.35;;;6.10;;
71753;SDS011;59593;51.716;7.016;2022-08-19T02:41:00;6.45;;;5.80;;
71753;SDS011;59593;51.716;7.016;2022-08-19T02:43:52;8.45;;;6.28;;
71753;SDS011;59593;51.716;7.016;2022-08-19T02:46:20;7.20;;;5.75;;
71753;SDS011;59593;51.716;7.016;2022-08-19T02:48:50;8.23;;;5.45;;
71753;SDS011;59593;51.716;7.016;2022-08-19T02:51:25;6.60;;;6.00;;
71753;SDS011;59593;51.716;7.016;2022-08-19T02:53:56;7.53;;;6.40;;
71753;SDS011;59593;51.716;7.016;2022-08-19T02:56:23;7.72;;;6.50;;
71753;SDS011;59593;51.716;7.016;2022-08-19T02:58:51;11.27;;;7.35;;
71753;SDS011;59593;51.716;7.016;2022-08-19T03:01:25;7.50;;;6.80;;
71753;SDS011;59593;51.716;7.016;2022-08-19T03:03:58;7.80;;;6.90;;
71753;SDS011;59593;51.716;7.016;2022-08-19T03:06:25;10.05;;;6.70;;
71753;SDS011;59593;51.716;7.016;2022-08-19T03:08:51;6.95;;;6.35;;
71753;SDS011;59593;51.716;7.016;2022-08-19T03:11:22;7.45;;;6.32;;
71753;SDS011;59593;51.716;7.016;2022-08-19T03:13:50;11.05;;;6.47;;
71753;SDS011;59593;51.716;7.016;2022-08-19T03:16:20;7.10;;;6.50;;
71753;SDS011;59593;51.716;7.016;2022-08-19T03:18:47;7.10;;;6.40;;
71753;SDS011;59593;51.716;7.016;2022-08-19T03:21:20;6.88;;;6.18;;
71753;SDS011;59593;51.716;7.016;2022-08-19T03:23:49;6.50;;;5.90;;
71753;SDS011;59593;51.716;7.016;2022-08-19T03:26:15;7.32;;;5.93;;
71753;SDS011;59593;51.716;7.016;2022-08-19T03:28:42;7.38;;;6.32;;
71753;SDS011;59593;51.716;7.016;2022-08-19T03:31:10;6.80;;;5.95;;
71753;SDS011;59593;51.716;7.016;2022-08-19T03:33:38;6.97;;;6.22;;
71753;SDS011;59593;51.716;7.016;2022-08-19T03:38:32;7.57;;;6.88;;
71753;SDS011;59593;51.716;7.016;2022-08-19T03:41:02;7.22;;;6.45;;
71753;SDS011;59593;51.716;7.016;2022-08-19T03:43:31;7.03;;;6.18;;
71753;SDS011;59593;51.716;7.016;2022-08-19T03:46:02;7.70;;;6.90;;
71753;SDS011;59593;51.716;7.016;2022-08-19T03:48:33;8.23;;;6.95;;
71753;SDS011;59593;51.716;7.016;2022-08-19T03:50:59;7.75;;;6.72;;
71753;SDS011;59593;51.716;7.016;2022-08-19T03:53:26;8.63;;;7.72;;
71753;SDS011;59593;51.716;7.016;2022-08-19T03:55:53;8.43;;;7.60;;
71753;SDS011;59593;51.716;7.016;2022-08-19T03:58:20;8.43;;;7.60;;
71753;SDS011;59593;51.716;7.016;2022-08-19T04:00:47;8.32;;;7.55;;
71753;SDS011;59593;51.716;7.016;2022-08-19T04:03:12;9.40;;;8.50;;
71753;SDS011;59593;51.716;7.016;2022-08-19T04:05:38;9.13;;;8.23;;
71753;SDS011;59593;51.716;7.016;2022-08-19T04:08:04;9.88;;;8.98;;
71753;SDS011;59593;51.716;7.016;2022-08-19T04:10:31;10.82;;;9.73;;
71753;SDS011;59593;51.716;7.016;2022-08-19T04:13:01;11.05;;;8.50;;
71753;SDS011;59593;51.716;7.016;2022-08-19T04:15:28;9.32;;;8.38;;
71753;SDS011;59593;51.716;7.016;2022-08-19T04:17:58;8.93;;;7.63;;
71753;SDS011;59593;51.716;7.016;2022-08-19T04:20:23;7.90;;;7.10;;
71753;SDS011;59593;51.716;7.016;2022-08-19T04:22:49;8.55;;;7.82;;
71753;SDS011;59593;51.716;7.016;2022-08-19T04:25:15;7.90;;;7.18;;
71753;SDS011;59593;51.716;7.016;2022-08-19T04:27:40;7.50;;;6.80;;
71753;SDS011;59593;51.716;7.016;2022-08-19T04:30:08;8.35;;;7.50;;
71753;SDS011;59593;51.716;7.016;2022-08-19T04:32:34;8.20;;;7.40;;
71753;SDS011;59593;51.716;7.016;2022-08-19T04:35:00;8.07;;;7.28;;
71753;SDS011;59593;51.716;7.016;2022-08-19T04:37:26;7.75;;;6.78;;
71753;SDS011;59593;51.716;7.016;2022-08-19T04:39:52;8.55;;;7.07;;
71753;SDS011;59593;51.716;7.016;2022-08-19T04:42:36;13.98;;;7.32;;
71753;SDS011;59593;51.716;7.016;2022-08-19T04:45:06;7.65;;;6.95;;
71753;SDS011;59593;51.716;7.016;2022-08-19T04:47:35;8.05;;;6.82;;
71753;SDS011;59593;51.716;7.016;2022-08-19T04:50:01;8.32;;;7.47;;
71753;SDS011;59593;51.716;7.016;2022-08-19T04:52:28;7.90;;;7.10;;
71753;SDS011;59593;51.716;7.016;2022-08-19T04:54:56;7.40;;;6.70;;
71753;SDS011;59593;51.716;7.016;2022-08-19T04:57:21;7.88;;;7.07;;
71753;SDS011;59593;51.716;7.016;2022-08-19T04:59:47;7.70;;;7.00;;
71753;SDS011;59593;51.716;7.016;2022-08-19T05:02:13;8.70;;;7.47;;
71753;SDS011;59593;51.716;7.016;2022-08-19T05:04:39;11.43;;;7.78;;
71753;SDS011;59593;51.716;7.016;2022-08-19T05:07:05;12.93;;;8.07;;
71753;SDS011;59593;51.716;7.016;2022-08-19T05:09:32;9.07;;;8.15;;
71753;SDS011;59593;51.716;7.016;2022-08-19T05:11:57;9.13;;;7.85;;
71753;SDS011;59593;51.716;7.016;2022-08-19T05:14:24;10.90;;;7.70;;
71753;SDS011;59593;51.716;7.016;2022-08-19T05:16:50;8.18;;;7.35;;
71753;SDS011;59593;51.716;7.016;2022-08-19T05:19:15;8.68;;;7.80;;
71753;SDS011;59593;51.716;7.016;2022-08-19T05:21:59;11.35;;;8.00;;
71753;SDS011;59593;51.716;7.016;2022-08-19T05:24:44;10.18;;;8.20;;
71753;SDS011;59593;51.716;7.016;2022-08-19T05:27:09;13.63;;;10.00;;
71753;SDS011;59593;51.716;7.016;2022-08-19T05:29:35;16.00;;;11.57;;
71753;SDS011;59593;51.716;7.016;2022-08-19T05:32:03;16.83;;;12.50;;
71753;SDS011;59593;51.716;7.016;2022-08-19T05:34:30;14.52;;;12.52;;
71753;SDS011;59593;51.716;7.016;2022-08-19T05:36:58;15.45;;;13.93;;
71753;SDS011;59593;51.716;7.016;2022-08-19T05:39:27;14.63;;;13.13;;
71753;SDS011;59593;51.716;7.016;2022-08-19T05:42:04;14.85;;;13.10;;
71753;SDS011;59593;51.716;7.016;2022-08-19T05:44:36;14.48;;;13.02;;
71753;SDS011;59593;51.716;7.016;2022-08-19T05:47:05;16.75;;;14.00;;
71753;SDS011;59593;51.716;7.016;2022-08-19T05:49:33;17.45;;;14.15;;
71753;SDS011;59593;51.716;7.016;2022-08-19T05:52:02;22.25;;;15.18;;
71753;SDS011;59593;51.716;7.016;2022-08-19T05:54:33;16.98;;;15.25;;
71753;SDS011;59593;51.716;7.016;2022-08-19T05:57:01;20.48;;;13.48;;
71753;SDS011;59593;51.716;7.016;2022-08-19T05:59:27;28.38;;;11.98;;
71753;SDS011;59593;51.716;7.016;2022-08-19T06:01:53;42.00;;;11.60;;
71753;SDS011;59593;51.716;7.016;2022-08-19T06:04:20;43.22;;;11.68;;
71753;SDS011;59593;51.716;7.016;2022-08-19T06:06:47;38.95;;;12.05;;
71753;SDS011;59593;51.716;7.016;2022-08-19T06:09:16;35.58;;;12.27;;
71753;SDS011;59593;51.716;7.016;2022-08-19T06:11:53;28.55;;;11.95;;
71753;SDS011;59593;51.716;7.016;2022-08-19T06:14:24;24.20;;;11.80;;
71753;SDS011;59593;51.716;7.016;2022-08-19T06:17:00;16.25;;;14.55;;
71753;SDS011;59593;51.716;7.016;2022-08-19T06:19:27;16.90;;;15.10;;
71753;SDS011;59593;51.716;7.016;2022-08-19T06:21:57;17.00;;;14.48;;
71753;SDS011;59593;51.716;7.016;2022-08-19T06:24:24;16.23;;;14.50;;
71753;SDS011;59593;51.716;7.016;2022-08-19T06:26:53;20.80;;;15.70;;
71753;SDS011;59593;51.716;7.016;2022-08-19T06:29:20;20.75;;;15.80;;
71753;SDS011;59593;51.716;7.016;2022-08-19T06:31:49;21.15;;;14.82;;
71753;SDS011;59593;51.716;7.016;2022-08-19T06:34:16;17.38;;;13.80;;
71753;SDS011;59593;51.716;7.016;2022-08-19T06:36:44;20.88;;;16.88;;
71753;SDS011;59593;51.716;7.016;2022-08-19T06:39:13;17.30;;;13.13;;
71753;SDS011;59593;51.716;7.016;2022-08-19T06:41:42;18.05;;;14.50;;
71753;SDS011;59593;51.716;7.016;2022-08-19T06:44:10;17.55;;;14.65;;
71753;SDS011;59593;51.716;7.016;2022-08-19T06:46:37;18.38;;;16.20;;
71753;SDS011;59593;51.716;7.016;2022-08-19T06:49:04;21.20;;;15.10;;
71753;SDS011;59593;51.716;7.016;2022-08-19T06:51:30;21.38;;;16.00;;
71753;SDS011;59593;51.716;7.016;2022-08-19T06:53:57;16.83;;;15.00;;
71753;SDS011;59593;51.716;7.016;2022-08-19T06:56:26;19.35;;;14.85;;
71753;SDS011;59593;51.716;7.016;2022-08-19T06:59:04;22.38;;;17.65;;
71753;SDS011;59593;51.716;7.016;2022-08-19T07:01:51;22.67;;;16.77;;
71753;SDS011;59593;51.716;7.016;2022-08-19T07:04:19;18.92;;;14.50;;
71753;SDS011;59593;51.716;7.016;2022-08-19T07:06:47;19.95;;;16.25;;
71753;SDS011;59593;51.716;7.016;2022-08-19T07:09:13;19.40;;;14.77;;
71753;SDS011;59593;51.716;7.016;2022-08-19T07:11:44;17.58;;;14.90;;
71753;SDS011;59593;51.716;7.016;2022-08-19T07:14:11;21.67;;;16.30;;
71753;SDS011;59593;51.716;7.016;2022-08-19T07:16:37;16.02;;;14.32;;
71753;SDS011;59593;51.716;7.016;2022-08-19T07:19:03;18.80;;;14.82;;
71753;SDS011;59593;51.716;7.016;2022-08-19T07:21:28;21.98;;;15.90;;
71753;SDS011;59593;51.716;7.016;2022-08-19T07:23:55;18.38;;;14.70;;
71753;SDS011;59593;51.716;7.016;2022-08-19T07:26:23;21.80;;;15.85;;
71753;SDS011;59593;51.716;7.016;2022-08-19T07:28:50;20.75;;;15.85;;
71753;SDS011;59593;51.716;7.016;2022-08-19T07:31:18;23.83;;;14.63;;
71753;SDS011;59593;51.716;7.016;2022-08-19T07:33:46;18.88;;;14.32;;
71753;SDS011;59593;51.716;7.016;2022-08-19T07:36:16;17.35;;;14.52;;
71753;SDS011;59593;51.716;7.016;2022-08-19T07:38:43;20.15;;;13.43;;
71753;SDS011;59593;51.716;7.016;2022-08-19T07:41:15;16.52;;;13.40;;
71753;SDS011;59593;51.716;7.016;2022-08-19T07:43:43;14.90;;;12.82;;
71753;SDS011;59593;51.716;7.016;2022-08-19T07:46:10;14.80;;;11.95;;
71753;SDS011;59593;51.716;7.016;2022-08-19T07:48:38;16.55;;;12.65;;
71753;SDS011;59593;51.716;7.016;2022-08-19T07:51:06;16.63;;;12.07;;
71753;SDS011;59593;51.716;7.016;2022-08-19T07:53:34;14.52;;;12.00;;
71753;SDS011;59593;51.716;7.016;2022-08-19T07:56:01;13.10;;;9.95;;
71753;SDS011;59593;51.716;7.016;2022-08-19T07:58:34;12.60;;;10.43;;
71753;SDS011;59593;51.716;7.016;2022-08-19T08:01:03;16.52;;;11.98;;
71753;SDS011;59593;51.716;7.016;2022-08-19T08:03:31;12.35;;;10.88;;
71753;SDS011;59593;51.716;7.016;2022-08-19T08:06:16;14.32;;;11.07;;
71753;SDS011;59593;51.716;7.016;2022-08-19T08:09:02;14.80;;;12.85;;
71753;SDS011;59593;51.716;7.016;2022-08-19T08:14:17;13.85;;;12.50;;
71753;SDS011;59593;51.716;7.016;2022-08-19T08:16:47;11.93;;;9.80;;
71753;SDS011;59593;51.716;7.016;2022-08-19T08:19:13;12.48;;;11.18;;
71753;SDS011;59593;51.716;7.016;2022-08-19T08:21:42;12.35;;;9.98;;
71753;SDS011;59593;51.716;7.016;2022-08-19T08:24:08;14.63;;;11.25;;
71753;SDS011;59593;51.716;7.016;2022-08-19T08:26:34;12.60;;;11.25;;
71753;SDS011;59593;51.716;7.016;2022-08-19T08:29:00;16.52;;;12.00;;
71753;SDS011;59593;51.716;7.016;2022-08-19T08:31:26;15.18;;;12.48;;
71753;SDS011;59593;51.716;7.016;2022-08-19T08:33:53;19.58;;;14.10;;
71753;SDS011;59593;51.716;7.016;2022-08-19T08:36:19;18.20;;;12.25;;
71753;SDS011;59593;51.716;7.016;2022-08-19T08:38:45;11.05;;;9.95;;
71753;SDS011;59593;51.716;7.016;2022-08-19T08:41:31;13.13;;;11.73;;
71753;SDS011;59593;51.716;7.016;2022-08-19T08:44:03;16.55;;;14.82;;
71753;SDS011;59593;51.716;7.016;2022-08-19T08:49:26;16.15;;;12.73;;
71753;SDS011;59593;51.716;7.016;2022-08-19T08:54:36;16.10;;;9.98;;
71753;SDS011;59593;51.716;7.016;2022-08-19T08:57:22;13.02;;;9.82;;
71753;SDS011;59593;51.716;7.016;2022-08-19T08:59:53;15.02;;;13.15;;
71753;SDS011;59593;51.716;7.016;2022-08-19T09:02:22;14.25;;;12.80;;
71753;SDS011;59593;51.716;7.016;2022-08-19T09:04:48;18.02;;;15.52;;
71753;SDS011;59593;51.716;7.016;2022-08-19T09:10:10;20.23;;;17.13;;
71753;SDS011;59593;51.716;7.016;2022-08-19T09:15:29;21.48;;;15.88;;
71753;SDS011;59593;51.716;7.016;2022-08-19T09:18:01;19.00;;;16.90;;
71753;SDS011;59593;51.716;7.016;2022-08-19T09:20:28;19.58;;;17.30;;
71753;SDS011;59593;51.716;7.016;2022-08-19T09:22:56;25.92;;;17.98;;
71753;SDS011;59593;51.716;7.016;2022-08-19T09:25:23;24.35;;;18.38;;
71753;SDS011;59593;51.716;7.016;2022-08-19T09:27:49;19.83;;;17.05;;
71753;SDS011;59593;51.716;7.016;2022-08-19T09:30:22;20.88;;;17.05;;
71753;SDS011;59593;51.716;7.016;2022-08-19T09:32:51;26.83;;;20.17;;
71753;SDS011;59593;51.716;7.016;2022-08-19T09:35:20;23.10;;;18.60;;
71753;SDS011;59593;51.716;7.016;2022-08-19T09:37:48;24.13;;;18.85;;
71753;SDS011;59593;51.716;7.016;2022-08-19T09:40:14;21.83;;;18.77;;
71753;SDS011;59593;51.716;7.016;2022-08-19T09:42:41;20.27;;;18.17;;
71753;SDS011;59593;51.716;7.016;2022-08-19T09:45:08;19.83;;;17.73;;
71753;SDS011;59593;51.716;7.016;2022-08-19T09:47:35;25.48;;;18.58;;
71753;SDS011;59593;51.716;7.016;2022-08-19T09:50:03;19.83;;;16.85;;
71753;SDS011;59593;51.716;7.016;2022-08-19T09:52:31;20.33;;;18.17;;
71753;SDS011;59593;51.716;7.016;2022-08-19T09:54:57;20.73;;;17.77;;
71753;SDS011;59593;51.716;7.016;2022-08-19T09:57:22;17.10;;;15.30;;
71753;SDS011;59593;51.716;7.016;2022-08-19T09:59:48;18.25;;;16.10;;
71753;SDS011;59593;51.716;7.016;2022-08-19T10:02:13;19.58;;;15.98;;
71753;SDS011;59593;51.716;7.016;2022-08-19T10:04:39;17.15;;;14.85;;
71753;SDS011;59593;51.716;7.016;2022-08-19T10:07:23;16.63;;;14.93;;
71753;SDS011;59593;51.716;7.016;2022-08-19T10:09:49;18.08;;;14.23;;
71753;SDS011;59593;51.716;7.016;2022-08-19T10:12:15;14.90;;;13.40;;
71753;SDS011;59593;51.716;7.016;2022-08-19T10:14:41;16.17;;;14.10;;
71753;SDS011;59593;51.716;7.016;2022-08-19T10:17:07;16.17;;;13.27;;
71753;SDS011;59593;51.716;7.016;2022-08-19T10:19:33;15.85;;;13.60;;
71753;SDS011;59593;51.716;7.016;2022-08-19T10:22:04;15.25;;;13.65;;
71753;SDS011;59593;51.716;7.016;2022-08-19T10:24:31;15.63;;;13.40;;
71753;SDS011;59593;51.716;7.016;2022-08-19T10:26:57;19.60;;;13.43;;
71753;SDS011;59593;51.716;7.016;2022-08-19T10:29:24;17.42;;;13.82;;
71753;SDS011;59593;51.716;7.016;2022-08-19T10:31:49;15.45;;;13.00;;
71753;SDS011;59593;51.716;7.016;2022-08-19T10:34:15;19.23;;;13.23;;
71753;SDS011;59593;51.716;7.016;2022-08-19T10:36:42;21.25;;;14.90;;
71753;SDS011;59593;51.716;7.016;2022-08-19T10:39:08;14.98;;;12.38;;
71753;SDS011;59593;51.716;7.016;2022-08-19T10:41:36;19.52;;;14.55;;
71753;SDS011;59593;51.716;7.016;2022-08-19T10:44:04;17.27;;;13.27;;
71753;SDS011;59593;51.716;7.016;2022-08-19T10:46:32;18.88;;;16.52;;
71753;SDS011;59593;51.716;7.016;2022-08-19T10:49:00;17.83;;;14.80;;
71753;SDS011;59593;51.716;7.016;2022-08-19T10:51:27;18.98;;;13.85;;
71753;SDS011;59593;51.716;7.016;2022-08-19T10:54:11;14.18;;;12.68;;
71753;SDS011;59593;51.716;7.016;2022-08-19T10:56:37;18.05;;;11.57;;
71753;SDS011;59593;51.716;7.016;2022-08-19T10:59:28;20.45;;;13.95;;
71753;SDS011;59593;51.716;7.016;2022-08-19T11:01:58;18.45;;;15.68;;
71753;SDS011;59593;51.716;7.016;2022-08-19T11:04:25;14.93;;;13.00;;
71753;SDS011;59593;51.716;7.016;2022-08-19T11:06:51;16.52;;;14.13;;
71753;SDS011;59593;51.716;7.016;2022-08-19T11:09:18;18.42;;;13.70;;
71753;SDS011;59593;51.716;7.016;2022-08-19T11:11:45;16.80;;;14.52;;
71753;SDS011;59593;51.716;7.016;2022-08-19T11:14:13;19.90;;;17.50;;
71753;SDS011;59593;51.716;7.016;2022-08-19T11:16:41;18.45;;;16.45;;
71753;SDS011;59593;51.716;7.016;2022-08-19T11:19:08;19.17;;;17.13;;
71753;SDS011;59593;51.716;7.016;2022-08-19T11:21:37;18.38;;;15.55;;
71753;SDS011;59593;51.716;7.016;2022-08-19T11:24:08;18.38;;;14.60;;
71753;SDS011;59593;51.716;7.016;2022-08-19T11:26:37;24.55;;;18.85;;
71753;SDS011;59593;51.716;7.016;2022-08-19T11:29:04;19.92;;;15.93;;
71753;SDS011;59593;51.716;7.016;2022-08-19T11:31:32;19.08;;;16.88;;
71753;SDS011;59593;51.716;7.016;2022-08-19T11:34:02;22.17;;;17.55;;
71753;SDS011;59593;51.716;7.016;2022-08-19T11:36:29;18.95;;;16.85;;
71753;SDS011;59593;51.716;7.016;2022-08-19T11:38:57;18.67;;;15.75;;
71753;SDS011;59593;51.716;7.016;2022-08-19T11:41:23;21.63;;;16.38;;
71753;SDS011;59593;51.716;7.016;2022-08-19T11:43:50;18.73;;;16.92;;
71753;SDS011;59593;51.716;7.016;2022-08-19T11:46:18;18.85;;;14.77;;
71753;SDS011;59593;51.716;7.016;2022-08-19T11:48:43;19.08;;;17.08;;
71753;SDS011;59593;51.716;7.016;2022-08-19T11:51:11;17.67;;;15.48;;
71753;SDS011;59593;51.716;7.016;2022-08-19T11:53:38;18.27;;;13.60;;
71753;SDS011;59593;51.716;7.016;2022-08-19T11:56:04;16.50;;;13.90;;
71753;SDS011;59593;51.716;7.016;2022-08-19T11:58:32;15.55;;;13.50;;
71753;SDS011;59593;51.716;7.016;2022-08-19T12:00:59;17.75;;;14.27;;
71753;SDS011;59593;51.716;7.016;2022-08-19T12:03:25;17.05;;;15.25;;
71753;SDS011;59593;51.716;7.016;2022-08-19T12:05:53;15.48;;;13.77;;
71753;SDS011;59593;51.716;7.016;2022-08-19T12:08:18;14.43;;;12.30;;
71753;SDS011;59593;51.716;7.016;2022-08-19T12:10:44;13.73;;;12.15;;
71753;SDS011;59593;51.716;7.016;2022-08-19T12:13:11;15.95;;;11.52;;
71753;SDS011;59593;51.716;7.016;2022-08-19T12:15:45;13.27;;;12.07;;
71753;SDS011;59593;51.716;7.016;2022-08-19T12:18:12;14.00;;;10.48;;
71753;SDS011;59593;51.716;7.016;2022-08-19T12:20:41;10.27;;;9.25;;
71753;SDS011;59593;51.716;7.016;2022-08-19T12:23:08;11.27;;;8.05;;
71753;SDS011;59593;51.716;7.016;2022-08-19T12:25:35;10.07;;;8.30;;
71753;SDS011;59593;51.716;7.016;2022-08-19T12:28:02;9.75;;;8.32;;
71753;SDS011;59593;51.716;7.016;2022-08-19T12:30:28;10.13;;;8.02;;
71753;SDS011;59593;51.716;7.016;2022-08-19T12:32:54;8.82;;;7.93;;
71753;SDS011;59593;51.716;7.016;2022-08-19T12:35:20;10.13;;;8.23;;
71753;SDS011;59593;51.716;7.016;2022-08-19T12:37:46;8.43;;;7.50;;
71753;SDS011;59593;51.716;7.016;2022-08-19T12:40:13;9.80;;;7.03;;
71753;SDS011;59593;51.716;7.016;2022-08-19T12:42:40;7.28;;;6.57;;
71753;SDS011;59593;51.716;7.016;2022-08-19T12:45:09;9.32;;;5.43;;
71753;SDS011;59593;51.716;7.016;2022-08-19T12:47:36;7.88;;;5.65;;
71753;SDS011;59593;51.716;7.016;2022-08-19T12:50:03;7.88;;;5.78;;
71753;SDS011;59593;51.716;7.016;2022-08-19T12:52:33;8.07;;;5.90;;
71753;SDS011;59593;51.716;7.016;2022-08-19T12:55:01;8.25;;;5.72;;
71753;SDS011;59593;51.716;7.016;2022-08-19T12:57:28;9.00;;;6.32;;
71753;SDS011;59593;51.716;7.016;2022-08-19T12:59:54;9.93;;;6.35;;
71753;SDS011;59593;51.716;7.016;2022-08-19T13:02:19;7.82;;;5.30;;
71753;SDS011;59593;51.716;7.016;2022-08-19T13:04:46;9.93;;;5.38;;
71753;SDS011;59593;51.716;7.016;2022-08-19T13:07:12;5.80;;;5.20;;
71753;SDS011;59593;51.716;7.016;2022-08-19T13:09:37;13.73;;;6.05;;
71753;SDS011;59593;51.716;7.016;2022-08-19T13:12:06;7.80;;;6.90;;
71753;SDS011;59593;51.716;7.016;2022-08-19T13:14:33;8.52;;;6.53;;
71753;SDS011;59593;51.716;7.016;2022-08-19T13:16:59;7.15;;;5.43;;
71753;SDS011;59593;51.716;7.016;2022-08-19T13:19:25;7.25;;;5.07;;
71753;SDS011;59593;51.716;7.016;2022-08-19T13:21:51;6.32;;;5.18;;
71753;SDS011;59593;51.716;7.016;2022-08-19T13:24:19;8.43;;;5.25;;
71753;SDS011;59593;51.716;7.016;2022-08-19T13:26:44;6.50;;;5.10;;
71753;SDS011;59593;51.716;7.016;2022-08-19T13:29:10;7.43;;;5.80;;
71753;SDS011;59593;51.716;7.016;2022-08-19T13:31:54;7.03;;;6.32;;
71753;SDS011;59593;51.716;7.016;2022-08-19T13:34:39;9.05;;;6.65;;
71753;SDS011;59593;51.716;7.016;2022-08-19T13:37:04;13.00;;;6.82;;
71753;SDS011;59593;51.716;7.016;2022-08-19T13:39:31;9.75;;;6.22;;
71753;SDS011;59593;51.716;7.016;2022-08-19T13:41:58;14.38;;;5.70;;
71753;SDS011;59593;51.716;7.016;2022-08-19T13:44:25;9.52;;;5.28;;
71753;SDS011;59593;51.716;7.016;2022-08-19T13:46:51;8.18;;;5.53;;
71753;SDS011;59593;51.716;7.016;2022-08-19T13:49:18;7.22;;;5.13;;
71753;SDS011;59593;51.716;7.016;2022-08-19T13:51:45;9.55;;;5.00;;
71753;SDS011;59593;51.716;7.016;2022-08-19T13:54:11;5.28;;;4.65;;
71753;SDS011;59593;51.716;7.016;2022-08-19T13:56:41;6.45;;;5.20;;
71753;SDS011;59593;51.716;7.016;2022-08-19T13:59:09;9.15;;;5.30;;
71753;SDS011;59593;51.716;7.016;2022-08-19T14:01:35;8.10;;;4.68;;
71753;SDS011;59593;51.716;7.016;2022-08-19T14:04:02;7.35;;;5.95;;
71753;SDS011;59593;51.716;7.016;2022-08-19T14:06:28;8.00;;;5.47;;
71753;SDS011;59593;51.716;7.016;2022-08-19T14:08:54;6.28;;;5.65;;
71753;SDS011;59593;51.716;7.016;2022-08-19T14:11:19;7.07;;;6.13;;
71753;SDS011;59593;51.716;7.016;2022-08-19T14:13:47;9.65;;;6.75;;
71753;SDS011;59593;51.716;7.016;2022-08-19T14:16:13;11.43;;;8.98;;
71753;SDS011;59593;51.716;7.016;2022-08-19T14:18:39;9.43;;;8.50;;
71753;SDS011;59593;51.716;7.016;2022-08-19T14:21:06;12.15;;;9.75;;
71753;SDS011;59593;51.716;7.016;2022-08-19T14:23:32;10.95;;;9.50;;
71753;SDS011;59593;51.716;7.016;2022-08-19T14:26:09;12.77;;;10.20;;
71753;SDS011;59593;51.716;7.016;2022-08-19T14:28:37;14.02;;;9.45;;
71753;SDS011;59593;51.716;7.016;2022-08-19T14:31:04;12.63;;;8.77;;
71753;SDS011;59593;51.716;7.016;2022-08-19T14:33:30;13.57;;;9.73;;
71753;SDS011;59593;51.716;7.016;2022-08-19T14:35:58;16.17;;;10.43;;
71753;SDS011;59593;51.716;7.016;2022-08-19T14:38:25;11.32;;;9.38;;
71753;SDS011;59593;51.716;7.016;2022-08-19T14:40:51;11.40;;;9.38;;
71753;SDS011;59593;51.716;7.016;2022-08-19T14:43:17;10.45;;;9.23;;
71753;SDS011;59593;51.716;7.016;2022-08-19T14:45:43;14.02;;;8.15;;
71753;SDS011;59593;51.716;7.016;2022-08-19T14:48:09;11.55;;;8.40;;
71753;SDS011;59593;51.716;7.016;2022-08-19T14:50:35;9.60;;;8.40;;
71753;SDS011;59593;51.716;7.016;2022-08-19T14:53:06;8.32;;;7.47;;
71753;SDS011;59593;51.716;7.016;2022-08-19T14:55:33;8.68;;;7.50;;
71753;SDS011;59593;51.716;7.016;2022-08-19T14:58:02;9.77;;;6.57;;